createdAt,value
2022-11-16T00:01:06.480Z,29.95
2022-11-16T00:03:34.529Z,28.63
2022-11-16T00:06:04.199Z,28.08
2022-11-16T00:08:36.550Z,26.27
2022-11-16T00:11:12.694Z,26.08
2022-11-16T00:13:40.749Z,26.60
2022-11-16T00:16:08.736Z,25.77
2022-11-16T00:18:35.847Z,24.27
2022-11-16T00:21:04.509Z,25.17
2022-11-16T00:23:32.399Z,21.60
2022-11-16T00:26:06.831Z,22.20
2022-11-16T00:28:34.000Z,24.40
2022-11-16T00:31:03.284Z,26.42
2022-11-16T00:33:30.214Z,24.00
2022-11-16T00:35:57.552Z,26.75
2022-11-16T00:38:24.682Z,27.95
2022-11-16T00:40:51.507Z,24.75
2022-11-16T00:43:18.500Z,26.70
2022-11-16T00:45:45.703Z,25.00
2022-11-16T00:48:12.881Z,27.77
2022-11-16T00:50:40.129Z,26.63
2022-11-16T00:53:07.950Z,26.08
2022-11-16T00:55:35.102Z,26.17
2022-11-16T00:58:01.910Z,25.30
2022-11-16T01:00:28.892Z,30.30
2022-11-16T01:02:55.815Z,25.27
2022-11-16T01:05:23.684Z,27.13
2022-11-16T01:07:51.430Z,26.58
2022-11-16T01:10:21.433Z,28.92
2022-11-16T01:12:49.984Z,29.02
2022-11-16T01:15:18.647Z,29.17
2022-11-16T01:17:45.682Z,30.23
2022-11-16T01:20:18.765Z,27.00
2022-11-16T01:22:46.069Z,29.45
2022-11-16T01:25:14.872Z,30.55
2022-11-16T01:27:42.580Z,29.25
2022-11-16T01:30:12.125Z,33.10
2022-11-16T01:32:39.040Z,31.05
2022-11-16T01:35:06.741Z,30.88
2022-11-16T01:37:33.883Z,32.47
2022-11-16T01:40:00.858Z,30.50
2022-11-16T01:42:29.417Z,34.20
2022-11-16T01:45:27.708Z,33.60
2022-11-16T01:47:55.161Z,31.52
2022-11-16T01:53:45.379Z,29.13
2022-11-16T01:56:12.262Z,22.98
2022-11-16T01:58:39.088Z,26.67
2022-11-16T02:01:06.150Z,22.02
2022-11-16T02:03:33.082Z,21.48
2022-11-16T02:06:18.240Z,20.52
2022-11-16T02:09:37.517Z,19.25
2022-11-16T02:12:04.286Z,21.73
2022-11-16T02:14:55.436Z,21.05
2022-11-16T02:17:27.963Z,20.92
2022-11-16T02:20:18.884Z,18.58
2022-11-16T02:23:08.606Z,22.58
2022-11-16T02:25:58.194Z,18.75
2022-11-16T02:28:39.936Z,21.50
2022-11-16T02:31:12.768Z,22.75
2022-11-16T02:33:42.179Z,22.42
2022-11-16T02:36:14.668Z,22.35
2022-11-16T02:38:50.538Z,17.23
2022-11-16T02:41:21.704Z,21.42
2022-11-16T02:44:00.911Z,19.88
2022-11-16T02:46:32.838Z,21.88
2022-11-16T02:51:30.560Z,14.82
2022-11-16T02:54:24.776Z,16.63
2022-11-16T02:56:54.275Z,19.95
2022-11-16T02:59:22.740Z,18.70
2022-11-16T03:02:23.480Z,18.60
2022-11-16T03:04:55.041Z,17.83
2022-11-16T03:07:30.351Z,16.98
2022-11-16T03:09:58.161Z,17.75
2022-11-16T03:12:31.127Z,20.35
2022-11-16T03:15:02.282Z,20.95
2022-11-16T03:17:44.403Z,18.65
2022-11-16T03:20:20.739Z,15.98
2022-11-16T03:22:54.889Z,20.23
2022-11-16T03:25:24.850Z,17.15
2022-11-16T03:28:09.097Z,21.50
2022-11-16T03:30:42.394Z,16.80
2022-11-16T03:33:20.826Z,19.50
2022-11-16T03:35:57.051Z,21.48
2022-11-16T03:38:26.504Z,22.55
2022-11-16T03:40:59.846Z,22.92
2022-11-16T03:43:28.066Z,27.08
2022-11-16T03:45:56.120Z,20.90
2022-11-16T03:48:22.833Z,24.95
2022-11-16T03:50:49.885Z,19.88
2022-11-16T03:53:16.936Z,20.92
2022-11-16T03:55:49.567Z,23.05
2022-11-16T03:58:18.667Z,22.60
2022-11-16T04:00:45.756Z,24.80
2022-11-16T04:03:12.698Z,21.10
2022-11-16T04:05:57.961Z,23.33
2022-11-16T04:08:43.371Z,23.55
2022-11-16T04:11:32.947Z,19.08
2022-11-16T04:14:18.423Z,23.75
2022-11-16T04:17:03.723Z,22.73
2022-11-16T04:19:49.260Z,20.67
2022-11-16T04:22:52.489Z,17.38
2022-11-16T04:25:25.483Z,21.73
2022-11-16T04:28:13.226Z,18.60
2022-11-16T04:31:03.107Z,23.58
2022-11-16T04:33:50.168Z,18.30
2022-11-16T04:36:35.688Z,19.58
2022-11-16T04:39:03.116Z,21.23
2022-11-16T04:41:52.751Z,21.77
2022-11-16T04:44:20.196Z,19.13
2022-11-16T04:47:05.695Z,21.65
2022-11-16T04:49:32.873Z,22.15
2022-11-16T04:51:59.740Z,25.52
2022-11-16T04:54:26.443Z,20.17
2022-11-16T04:56:53.246Z,20.58
2022-11-16T04:59:19.996Z,19.25
2022-11-16T05:02:05.104Z,23.42
2022-11-16T05:04:31.879Z,19.67
2022-11-16T05:06:58.693Z,27.45
2022-11-16T05:09:25.664Z,24.13
2022-11-16T05:11:52.740Z,21.55
2022-11-16T05:14:19.608Z,23.27
2022-11-16T05:16:46.344Z,22.45
2022-11-16T05:19:31.825Z,23.00
2022-11-16T05:21:58.624Z,21.05
2022-11-16T05:24:34.363Z,19.77
2022-11-16T05:27:13.511Z,23.83
2022-11-16T05:29:40.325Z,24.02
2022-11-16T05:32:07.778Z,22.52
2022-11-16T05:34:34.645Z,24.85
2022-11-16T05:37:01.919Z,22.65
2022-11-16T05:39:28.823Z,23.95
2022-11-16T05:41:56.804Z,23.92
2022-11-16T05:44:23.742Z,27.40
2022-11-16T05:46:50.912Z,27.23
2022-11-16T05:49:18.158Z,26.58
2022-11-16T05:51:46.242Z,25.45
2022-11-16T05:54:15.844Z,23.70
2022-11-16T05:56:43.027Z,23.77
2022-11-16T05:59:13.787Z,23.95
2022-11-16T06:01:43.611Z,27.63
2022-11-16T06:04:10.958Z,22.40
2022-11-16T06:06:38.249Z,23.90
2022-11-16T06:09:05.594Z,22.92
2022-11-16T06:11:35.972Z,24.10
2022-11-16T06:14:03.995Z,23.83
2022-11-16T06:16:31.381Z,22.73
2022-11-16T06:18:59.411Z,26.73
2022-11-16T06:21:26.412Z,23.92
2022-11-16T06:23:53.626Z,21.90
2022-11-16T06:26:20.417Z,23.23
2022-11-16T06:28:47.292Z,24.42
2022-11-16T06:31:14.220Z,22.40
2022-11-16T06:33:40.996Z,22.15
2022-11-16T06:36:08.195Z,22.50
2022-11-16T06:38:35.129Z,21.55
2022-11-16T06:41:02.044Z,21.00
2022-11-16T06:43:28.867Z,21.73
2022-11-16T06:45:58.037Z,23.65
2022-11-16T06:48:25.040Z,20.50
2022-11-16T06:50:52.885Z,22.58
2022-11-16T06:53:23.464Z,20.30
2022-11-16T06:55:52.791Z,18.13
2022-11-16T06:58:19.592Z,18.33
2022-11-16T07:00:46.326Z,22.63
2022-11-16T07:03:13.121Z,18.45
2022-11-16T07:05:41.982Z,23.65
2022-11-16T07:08:09.203Z,18.77
2022-11-16T07:10:36.960Z,23.73
2022-11-16T07:13:04.448Z,17.73
2022-11-16T07:15:32.170Z,22.67
2022-11-16T07:18:08.440Z,19.73
2022-11-16T07:20:37.914Z,16.95
2022-11-16T07:23:06.317Z,20.63
2022-11-16T07:25:34.781Z,17.63
2022-11-16T07:28:01.567Z,18.90
2022-11-16T07:30:28.353Z,21.52
2022-11-16T07:32:59.413Z,19.02
2022-11-16T07:35:26.332Z,23.25
2022-11-16T07:37:53.027Z,20.35
2022-11-16T07:40:20.680Z,22.25
2022-11-16T07:42:47.520Z,17.63
2022-11-16T07:45:14.386Z,17.80
2022-11-16T07:47:41.164Z,20.17
2022-11-16T07:50:08.438Z,21.85
2022-11-16T07:52:35.413Z,21.40
2022-11-16T07:55:02.258Z,20.63
2022-11-16T07:57:30.603Z,20.80
2022-11-16T07:59:57.421Z,19.08
2022-11-16T08:02:24.237Z,18.60
2022-11-16T08:04:51.154Z,21.00
2022-11-16T08:07:18.019Z,16.27
2022-11-16T08:09:44.967Z,19.25
2022-11-16T08:12:13.070Z,20.10
2022-11-16T08:14:39.915Z,18.40
2022-11-16T08:17:08.397Z,21.65
2022-11-16T08:19:36.660Z,21.70
2022-11-16T08:22:03.843Z,23.40
2022-11-16T08:24:30.721Z,26.58
2022-11-16T08:26:58.820Z,21.95
2022-11-16T08:29:26.425Z,19.80
2022-11-16T08:31:53.655Z,22.38
2022-11-16T08:34:21.327Z,19.83
2022-11-16T08:36:48.348Z,20.33
2022-11-16T08:39:15.209Z,19.15
2022-11-16T08:41:42.801Z,24.30
2022-11-16T08:44:09.770Z,19.92
2022-11-16T08:46:36.544Z,22.88
2022-11-16T08:49:03.405Z,20.40
2022-11-16T08:51:30.186Z,23.38
2022-11-16T08:53:58.629Z,15.93
2022-11-16T08:56:30.184Z,19.83
2022-11-16T08:58:59.189Z,23.50
2022-11-16T09:01:29.090Z,20.77
2022-11-16T09:03:57.268Z,21.60
2022-11-16T09:06:25.623Z,19.13
2022-11-16T09:08:52.798Z,20.00
2022-11-16T09:11:22.339Z,22.20
2022-11-16T09:13:51.803Z,19.95
2022-11-16T09:16:21.054Z,18.42
2022-11-16T09:18:49.679Z,20.35
2022-11-16T09:21:30.126Z,20.42
2022-11-16T09:23:58.009Z,16.60
2022-11-16T09:26:26.328Z,17.02
2022-11-16T09:28:58.933Z,15.23
2022-11-16T09:31:27.660Z,17.73
2022-11-16T09:33:58.362Z,15.80
2022-11-16T09:36:26.488Z,20.83
2022-11-16T09:39:25.816Z,19.00
2022-11-16T09:42:18.851Z,18.30
2022-11-16T09:45:12.472Z,17.60
2022-11-16T09:47:50.380Z,15.27
2022-11-16T09:50:29.760Z,14.10
2022-11-16T09:53:02.308Z,16.40
2022-11-16T09:55:35.544Z,18.60
2022-11-16T09:58:12.055Z,15.65
2022-11-16T10:00:44.239Z,17.45
2022-11-16T10:03:13.609Z,16.80
2022-11-16T10:06:03.409Z,15.60
2022-11-16T10:08:45.758Z,12.45
2022-11-16T10:11:30.681Z,11.52
2022-11-16T10:14:19.011Z,15.55
2022-11-16T10:17:01.396Z,17.13
2022-11-16T10:19:52.997Z,18.25
2022-11-16T10:22:56.092Z,15.05
2022-11-16T10:25:28.426Z,11.80
2022-11-16T10:28:07.017Z,13.63
2022-11-16T10:30:54.720Z,17.10
2022-11-16T10:33:25.526Z,18.30
2022-11-16T10:35:56.026Z,13.77
2022-11-16T10:38:27.828Z,16.65
2022-11-16T10:41:13.651Z,15.23
2022-11-16T10:43:42.188Z,16.73
2022-11-16T10:46:47.451Z,13.85
2022-11-16T10:49:29.253Z,14.27
2022-11-16T10:51:56.110Z,18.55
2022-11-16T10:54:22.977Z,17.52
2022-11-16T10:57:02.561Z,16.25
2022-11-16T10:59:48.520Z,18.60
2022-11-16T11:02:36.205Z,17.52
2022-11-16T11:05:15.646Z,18.38
2022-11-16T11:07:46.859Z,16.83
2022-11-16T11:10:41.459Z,18.30
2022-11-16T11:13:11.243Z,20.65
2022-11-16T11:15:42.927Z,14.15
2022-11-16T11:18:15.912Z,18.05
2022-11-16T11:20:45.642Z,17.23
2022-11-16T11:23:22.131Z,18.95
2022-11-16T11:25:56.269Z,17.02
2022-11-16T11:28:27.742Z,16.45
2022-11-16T11:31:03.960Z,13.20
2022-11-16T11:33:41.629Z,14.70
2022-11-16T11:36:20.809Z,14.88
2022-11-16T11:39:07.318Z,15.63
2022-11-16T11:41:57.813Z,14.27
2022-11-16T11:44:36.420Z,15.52
2022-11-16T11:50:27.180Z,16.58
2022-11-16T11:52:59.526Z,17.33
2022-11-16T11:55:26.454Z,19.00
2022-11-16T11:57:54.006Z,13.88
2022-11-16T12:00:21.250Z,16.00
2022-11-16T12:03:03.782Z,16.52
2022-11-16T12:08:35.186Z,16.85
2022-11-16T12:11:15.178Z,18.10
2022-11-16T12:14:19.255Z,14.40
2022-11-16T12:16:54.664Z,16.17
2022-11-16T12:19:39.582Z,14.32
2022-11-16T12:22:33.315Z,14.15
2022-11-16T12:25:30.803Z,14.52
2022-11-16T12:28:25.057Z,14.82
2022-11-16T12:30:51.769Z,18.42
2022-11-16T12:33:44.301Z,15.05
2022-11-16T12:36:32.363Z,19.95
2022-11-16T12:39:26.641Z,13.10
2022-11-16T12:42:18.168Z,16.60
2022-11-16T12:45:10.526Z,14.20
2022-11-16T12:47:55.285Z,16.83
2022-11-16T12:50:40.776Z,18.70
2022-11-16T12:53:29.192Z,15.38
2022-11-16T12:56:04.700Z,16.52
2022-11-16T12:58:46.634Z,13.05
2022-11-16T13:01:36.451Z,15.23
2022-11-16T13:04:13.113Z,16.50
2022-11-16T13:07:25.086Z,16.33
2022-11-16T13:10:01.073Z,19.08
2022-11-16T13:12:30.567Z,14.05
2022-11-16T13:15:00.421Z,13.95
2022-11-16T13:17:31.039Z,17.00
2022-11-16T13:20:18.718Z,12.65
2022-11-16T13:23:17.608Z,16.73
2022-11-16T13:25:57.300Z,15.02
2022-11-16T13:28:40.511Z,13.82
2022-11-16T13:31:21.810Z,16.00
2022-11-16T13:33:53.562Z,14.80
2022-11-16T13:36:32.262Z,19.20
2022-11-16T13:38:59.046Z,17.33
2022-11-16T13:41:27.378Z,17.25
2022-11-16T13:43:54.706Z,17.02
2022-11-16T13:46:53.750Z,16.73
2022-11-16T13:49:40.978Z,14.68
2022-11-16T13:52:23.785Z,12.48
2022-11-16T13:54:55.440Z,12.50
2022-11-16T13:57:24.721Z,14.63
2022-11-16T14:00:05.109Z,12.50
2022-11-16T14:02:36.239Z,16.05
2022-11-16T14:05:29.636Z,16.10
2022-11-16T14:07:56.425Z,15.00
2022-11-16T14:10:50.058Z,14.23
2022-11-16T14:13:44.204Z,13.48
2022-11-16T14:16:20.294Z,20.60
2022-11-16T14:18:55.823Z,14.60
2022-11-16T14:21:40.867Z,12.77
2022-11-16T14:24:25.709Z,15.30
2022-11-16T14:27:34.183Z,16.83
2022-11-16T14:30:18.616Z,16.25
2022-11-16T14:32:52.474Z,14.07
2022-11-16T14:35:38.967Z,12.60
2022-11-16T14:38:33.705Z,16.05
2022-11-16T14:41:03.228Z,12.32
2022-11-16T14:43:40.591Z,17.00
2022-11-16T14:46:14.233Z,14.60
2022-11-16T14:48:46.460Z,13.40
2022-11-16T14:51:30.782Z,18.60
2022-11-16T14:54:05.210Z,13.93
2022-11-16T14:56:31.962Z,15.18
2022-11-16T14:59:00.694Z,14.95
2022-11-16T15:01:36.459Z,14.52
2022-11-16T15:04:11.389Z,14.45
2022-11-16T15:06:45.933Z,14.38
2022-11-16T15:09:21.017Z,18.17
2022-11-16T15:12:08.398Z,43.90
2022-11-16T15:14:41.656Z,17.17
2022-11-16T15:17:09.883Z,16.20
2022-11-16T15:19:36.641Z,16.92
2022-11-16T15:22:04.417Z,23.75
2022-11-16T15:24:35.236Z,18.83
2022-11-16T15:27:20.147Z,16.20
2022-11-16T15:32:17.872Z,20.45
2022-11-16T15:34:54.283Z,17.65
2022-11-16T15:37:30.886Z,16.02
2022-11-16T15:39:59.118Z,19.65
2022-11-16T15:42:28.130Z,21.48
2022-11-16T15:44:56.129Z,17.42
2022-11-16T15:47:23.968Z,19.25
2022-11-16T15:49:53.092Z,19.77
2022-11-16T15:52:46.275Z,17.38
2022-11-16T15:55:37.048Z,19.98
2022-11-16T15:58:26.429Z,19.98
2022-11-16T16:00:54.630Z,17.33
2022-11-16T16:03:31.550Z,22.27
2022-11-16T16:05:58.936Z,20.40
2022-11-16T16:08:27.223Z,21.55
2022-11-16T16:11:26.453Z,22.50
2022-11-16T16:14:02.419Z,21.35
2022-11-16T16:16:30.369Z,16.45
2022-11-16T16:19:04.970Z,27.75
2022-11-16T16:21:45.619Z,22.15
2022-11-16T16:24:41.183Z,18.20
2022-11-16T16:27:25.627Z,18.88
2022-11-16T16:29:54.428Z,18.95
2022-11-16T16:32:24.258Z,17.25
2022-11-16T16:34:52.632Z,17.70
2022-11-16T16:37:19.639Z,16.85
2022-11-16T16:39:46.557Z,17.35
2022-11-16T16:42:15.322Z,20.40
2022-11-16T16:44:43.505Z,23.60
2022-11-16T16:47:10.982Z,18.73
2022-11-16T16:49:38.158Z,21.83
2022-11-16T16:52:06.099Z,17.58
2022-11-16T16:54:32.935Z,20.25
2022-11-16T16:57:02.383Z,30.30
2022-11-16T16:59:32.683Z,18.15
2022-11-16T17:01:59.949Z,18.67
2022-11-16T17:04:26.800Z,20.05
2022-11-16T17:06:53.942Z,16.50
2022-11-16T17:09:21.108Z,21.58
2022-11-16T17:11:48.108Z,26.00
2022-11-16T17:14:14.905Z,19.33
2022-11-16T17:16:41.701Z,19.40
2022-11-16T17:19:08.477Z,22.88
2022-11-16T17:21:35.199Z,21.73
2022-11-16T17:24:02.037Z,21.40
2022-11-16T17:26:29.625Z,24.45
2022-11-16T17:28:57.714Z,23.88
2022-11-16T17:31:26.058Z,20.83
2022-11-16T17:33:53.144Z,19.63
2022-11-16T17:36:20.484Z,21.00
2022-11-16T17:38:47.361Z,19.20
2022-11-16T17:41:15.267Z,20.58
2022-11-16T17:43:43.783Z,24.80
2022-11-16T17:46:15.601Z,21.33
2022-11-16T17:51:12.156Z,22.20
2022-11-16T17:53:39.993Z,19.33
2022-11-16T17:56:08.034Z,22.00
2022-11-16T17:58:34.920Z,19.50
2022-11-16T18:01:01.875Z,19.20
2022-11-16T18:03:28.881Z,20.70
2022-11-16T18:06:11.166Z,27.45
2022-11-16T18:08:38.073Z,20.40
2022-11-16T18:11:06.911Z,19.98
2022-11-16T18:13:34.711Z,19.83
2022-11-16T18:16:15.628Z,25.15
2022-11-16T18:18:43.973Z,22.05
2022-11-16T18:21:15.833Z,20.95
2022-11-16T18:23:46.737Z,20.10
2022-11-16T18:26:16.367Z,20.55
2022-11-16T18:28:46.338Z,20.70
2022-11-16T18:31:18.237Z,19.45
2022-11-16T18:33:45.257Z,20.02
2022-11-16T18:36:13.204Z,23.88
2022-11-16T18:38:39.986Z,21.35
2022-11-16T18:41:12.905Z,19.42
2022-11-16T18:43:40.476Z,20.73
2022-11-16T18:46:07.758Z,21.60
2022-11-16T18:48:34.695Z,22.42
2022-11-16T18:51:03.417Z,18.05
2022-11-16T18:53:31.831Z,18.95
2022-11-16T18:55:58.903Z,17.98
2022-11-16T19:01:17.011Z,21.60
2022-11-16T19:03:44.164Z,23.52
2022-11-16T19:06:11.890Z,24.48
2022-11-16T19:08:41.463Z,19.50
2022-11-16T19:11:14.171Z,24.33
2022-11-16T19:13:43.207Z,23.67
2022-11-16T19:16:12.189Z,21.75
2022-11-16T19:18:39.508Z,20.60
2022-11-16T19:21:20.065Z,19.85
2022-11-16T19:23:49.568Z,22.02
2022-11-16T19:26:18.275Z,21.83
2022-11-16T19:28:47.044Z,20.95
2022-11-16T19:31:28.727Z,19.70
2022-11-16T19:34:00.861Z,23.33
2022-11-16T19:36:29.701Z,21.23
2022-11-16T19:38:56.808Z,19.73
2022-11-16T19:41:24.526Z,21.77
2022-11-16T19:43:53.111Z,19.65
2022-11-16T19:46:24.393Z,22.00
2022-11-16T19:48:51.799Z,22.48
2022-11-16T19:51:21.364Z,25.00
2022-11-16T19:53:48.635Z,22.73
2022-11-16T19:56:18.496Z,19.10
2022-11-16T19:58:45.807Z,21.45
2022-11-16T20:01:17.063Z,17.95
2022-11-16T20:03:46.059Z,17.02
2022-11-16T20:06:18.153Z,21.52
2022-11-16T20:08:56.484Z,22.98
2022-11-16T20:11:25.982Z,22.10
2022-11-16T20:13:54.320Z,20.25
2022-11-16T20:16:23.842Z,19.00
2022-11-16T20:18:51.956Z,18.90
2022-11-16T20:21:22.745Z,23.75
2022-11-16T20:23:51.771Z,22.30
2022-11-16T20:26:19.848Z,22.45
2022-11-16T20:28:47.761Z,19.95
2022-11-16T20:31:16.719Z,22.05
2022-11-16T20:33:50.588Z,20.17
2022-11-16T20:36:17.424Z,20.65
2022-11-16T20:38:44.353Z,21.05
2022-11-16T20:41:16.433Z,16.90
2022-11-16T20:43:44.732Z,20.15
2022-11-16T20:46:14.241Z,19.02
2022-11-16T20:48:42.603Z,23.70
2022-11-16T20:51:13.969Z,21.17
2022-11-16T20:53:40.817Z,18.00
2022-11-16T20:56:07.945Z,19.17
2022-11-16T20:58:35.055Z,18.52
2022-11-16T21:01:07.990Z,20.05
2022-11-16T21:03:35.312Z,21.52
2022-11-16T21:06:02.519Z,18.95
2022-11-16T21:08:30.050Z,20.75
2022-11-16T21:10:57.251Z,20.73
2022-11-16T21:13:42.908Z,25.00
2022-11-16T21:16:13.713Z,21.27
2022-11-16T21:18:40.600Z,23.90
2022-11-16T21:21:12.206Z,24.58
2022-11-16T21:23:41.036Z,18.80
2022-11-16T21:26:11.461Z,21.17
2022-11-16T21:28:39.245Z,23.55
2022-11-16T21:31:11.438Z,21.17
2022-11-16T21:33:38.406Z,21.33
2022-11-16T21:36:14.893Z,23.33
2022-11-16T21:38:42.003Z,24.27
2022-11-16T21:41:13.426Z,23.88
2022-11-16T21:43:40.886Z,21.08
2022-11-16T21:46:11.396Z,19.48
2022-11-16T21:48:38.644Z,21.55
2022-11-16T21:51:13.997Z,22.80
2022-11-16T21:53:40.902Z,21.83
2022-11-16T21:56:12.872Z,21.10
2022-11-16T21:58:40.316Z,22.33
2022-11-16T22:01:07.096Z,22.88
2022-11-16T22:03:34.405Z,20.42
2022-11-16T22:06:22.368Z,22.02
2022-11-16T22:08:49.284Z,20.55
2022-11-16T22:11:16.884Z,20.15
2022-11-16T22:13:46.559Z,21.17
2022-11-16T22:16:17.072Z,23.45
2022-11-16T22:18:44.280Z,18.10
2022-11-16T22:21:11.465Z,16.90
2022-11-16T22:23:38.719Z,21.50
2022-11-16T22:26:07.325Z,17.77
2022-11-16T22:28:34.921Z,19.95
2022-11-16T22:31:11.077Z,18.80
2022-11-16T22:33:38.487Z,16.58
2022-11-16T22:36:08.377Z,18.65
2022-11-16T22:38:35.437Z,18.45
2022-11-16T22:41:02.491Z,18.70
2022-11-16T22:43:30.544Z,18.20
2022-11-16T22:46:02.493Z,16.35
2022-11-16T22:51:06.656Z,22.20
2022-11-16T22:53:34.476Z,14.38
2022-11-16T22:56:09.568Z,18.13
2022-11-16T22:58:37.725Z,17.98
2022-11-16T23:01:08.694Z,17.27
2022-11-16T23:03:36.620Z,17.92
2022-11-16T23:06:05.133Z,16.83
2022-11-16T23:08:32.762Z,17.00
2022-11-16T23:11:34.577Z,17.55
2022-11-16T23:14:20.946Z,16.02
2022-11-16T23:16:48.376Z,20.85
2022-11-16T23:19:36.079Z,18.55
2022-11-16T23:22:22.390Z,19.48
2022-11-16T23:25:07.524Z,16.98
2022-11-16T23:27:43.616Z,17.48
2022-11-16T23:30:13.093Z,20.98
2022-11-16T23:32:41.383Z,19.35
2022-11-16T23:35:09.426Z,18.33
2022-11-16T23:37:50.017Z,16.70
2022-11-16T23:40:17.294Z,18.98
2022-11-16T23:43:02.486Z,17.15
2022-11-16T23:45:29.559Z,18.77
2022-11-16T23:47:56.312Z,13.55
2022-11-16T23:50:23.147Z,13.93
2022-11-16T23:52:49.929Z,18.90
2022-11-16T23:55:16.687Z,14.73
2022-11-16T23:57:43.442Z,18.60
